Time;durP1;ratioP1;P1;durP2;ratioP2;P2;SDS_P1;SDS_P2;PMS_P1;PMS_P2;Temp;Humidity;BMP_temperature;BMP_pressure;BME280_temperature;BME280_humidity;BME280_pressure;Samples;Min_cycle;Max_cycle;Signal;HPM_P1;HPM_P2
2022/09/16 00:02:14;;;;;;;2.70;0.90;;;;;;;21.80;44.83;100875.88;4936575;29;20091;-65
2022/09/16 00:04:40;;;;;;;2.53;0.75;;;;;;;21.79;44.27;100876.91;4905140;29;20059;-64
2022/09/16 00:07:05;;;;;;;6.88;0.98;;;;;;;21.78;44.60;100881.53;4936751;29;20024;-65
2022/09/16 00:09:31;;;;;;;2.72;0.80;;;;;;;21.78;44.88;100873.34;4936766;29;20032;-64
2022/09/16 00:11:56;;;;;;;7.10;1.10;;;;;;;21.78;45.15;100877.94;4936416;29;20027;-65
2022/09/16 00:14:21;;;;;;;7.00;0.80;;;;;;;21.76;44.62;100877.31;4936589;29;20478;-64
2022/09/16 00:16:47;;;;;;;2.65;1.00;;;;;;;21.73;44.80;100874.97;4920537;29;20039;-65
2022/09/16 00:19:12;;;;;;;2.33;0.82;;;;;;;21.71;45.54;100868.91;4935818;29;20122;-64
2022/09/16 00:21:37;;;;;;;3.50;0.80;;;;;;;21.69;45.00;100869.06;4920588;29;20035;-64
2022/09/16 00:24:03;;;;;;;3.53;1.02;;;;;;;21.68;45.43;100872.88;4920589;29;20035;-64
2022/09/16 00:26:29;;;;;;;8.00;1.17;;;;;;;21.69;45.78;100874.53;4921324;29;20035;-64
2022/09/16 00:28:55;;;;;;;3.67;0.80;;;;;;;21.66;45.43;100868.66;4936555;29;20039;-64
2022/09/16 00:31:21;;;;;;;2.05;0.73;;;;;;;21.65;45.80;100873.25;4920800;29;20035;-65
2022/09/16 00:33:46;;;;;;;1.77;0.88;;;;;;;21.63;45.54;100874.50;4920336;29;20067;-65
2022/09/16 00:36:15;;;;;;;1.77;0.80;;;;;;;21.58;45.64;100866.09;4920444;29;20035;-64
2022/09/16 00:38:41;;;;;;;3.72;0.88;;;;;;;21.58;45.58;100872.38;4936563;29;20034;-64
2022/09/16 00:41:07;;;;;;;5.47;1.02;;;;;;;21.53;45.46;100865.81;4936418;29;20023;-64
2022/09/16 00:43:56;;;;;;;7.45;1.30;;;;;;;21.53;45.14;100879.47;4920833;29;20035;-64
2022/09/16 00:46:46;;;;;;;2.95;0.90;;;;;;;21.47;45.67;100878.38;4920778;29;20609;-64
2022/09/16 00:49:17;;;;;;;1.85;0.77;;;;;;;21.43;45.42;100879.81;4937524;29;20042;-64
2022/09/16 00:51:44;;;;;;;2.97;1.35;;;;;;;21.39;45.74;100876.63;4920564;29;20028;-64
2022/09/16 00:54:09;;;;;;;4.65;1.55;;;;;;;21.35;45.96;100878.09;4937366;29;20106;-64
2022/09/16 00:56:37;;;;;;;3.63;1.10;;;;;;;21.31;45.17;100873.22;4920444;29;20187;-64
2022/09/16 00:59:03;;;;;;;11.18;2.17;;;;;;;21.29;45.60;100875.31;4920382;29;20024;-64
2022/09/16 01:01:30;;;;;;;6.00;1.00;;;;;;;21.22;45.34;100869.78;4936193;29;20420;-65
2022/09/16 01:03:59;;;;;;;3.78;0.80;;;;;;;21.20;45.63;100876.47;4937466;29;20032;-64
2022/09/16 01:06:25;;;;;;;2.97;1.25;;;;;;;21.17;45.32;100875.00;4936083;29;20020;-65
2022/09/16 01:08:51;;;;;;;5.30;1.00;;;;;;;21.13;45.60;100865.56;4920475;29;20043;-65
2022/09/16 01:11:16;;;;;;;3.47;0.93;;;;;;;21.09;46.02;100866.97;4920508;29;20027;-65
2022/09/16 01:13:42;;;;;;;2.25;0.60;;;;;;;21.08;45.76;100868.00;4920072;29;20027;-65
2022/09/16 01:16:17;;;;;;;4.03;0.82;;;;;;;21.08;45.88;100867.19;4935864;29;20027;-65
2022/09/16 01:18:51;;;;;;;6.35;1.33;;;;;;;21.08;46.30;100869.91;4936467;29;20071;-65
2022/09/16 01:21:19;;;;;;;3.13;1.08;;;;;;;21.08;45.76;100870.72;4936018;29;20024;-65
2022/09/16 01:24:13;;;;;;;3.17;1.00;;;;;;;21.09;45.44;100872.41;4935933;29;20039;-65
2022/09/16 01:26:57;;;;;;;;;;;;;;;21.08;45.47;100869.91;4937473;29;20394;-64
2022/09/16 01:29:55;;;;;;;4.43;0.77;;;;;;;21.07;45.96;100868.19;4937097;29;19910;-64
2022/09/16 01:32:38;;;;;;;3.17;0.70;;;;;;;21.05;46.33;100871.06;4939177;29;20106;-64
2022/09/16 01:35:14;;;;;;;3.45;1.00;;;;;;;21.03;46.21;100869.59;4939855;29;20485;-65
2022/09/16 01:37:51;;;;;;;6.28;1.50;;;;;;;21.03;45.96;100872.31;4924158;29;20118;-65
2022/09/16 01:40:27;;;;;;;1.40;0.75;;;;;;;21.04;46.24;100879.47;4940773;29;20537;-65
2022/09/16 01:43:03;;;;;;;5.97;1.00;;;;;;;21.02;45.51;100879.63;4939881;29;20114;-64
2022/09/16 01:45:49;;;;;;;4.03;1.27;;;;;;;20.98;46.10;100870.19;4939607;29;20545;-64
2022/09/16 01:48:18;;;;;;;8.10;0.75;;;;;;;21.01;46.36;100877.13;4939835;29;20055;-65
2022/09/16 01:50:51;;;;;;;6.00;0.88;;;;;;;21.01;45.98;100869.81;4940851;29;20119;-64
2022/09/16 01:53:23;;;;;;;3.90;0.85;;;;;;;21.03;46.10;100873.16;4939753;29;20063;-64
2022/09/16 01:56:23;;;;;;;1.52;1.20;;;;;;;21.04;46.05;100876.72;4940634;29;20497;-64
2022/09/16 01:59:00;;;;;;;2.22;0.68;;;;;;;21.04;45.61;100872.13;4931591;29;20040;-64
2022/09/16 02:01:32;;;;;;;4.10;0.77;;;;;;;21.07;46.02;100873.63;4940418;29;20027;-64
2022/09/16 02:04:02;;;;;;;8.77;0.90;;;;;;;21.07;46.03;100871.78;4939478;29;20026;-64
2022/09/16 02:06:29;;;;;;;5.25;1.00;;;;;;;21.10;45.93;100868.66;4939258;29;20389;-64
2022/09/16 02:08:58;;;;;;;1.20;0.60;;;;;;;21.08;45.98;100859.81;4939312;29;20485;-64
2022/09/16 02:11:23;;;;;;;1.98;1.00;;;;;;;21.11;46.24;100853.13;4939085;29;20119;-64
2022/09/16 02:14:04;;;;;;;1.75;0.68;;;;;;;21.14;46.29;100859.03;4923305;29;20036;-65
2022/09/16 02:16:35;;;;;;;3.35;0.50;;;;;;;21.13;45.80;100857.38;4923326;29;20400;-64
2022/09/16 02:19:05;;;;;;;3.42;0.90;;;;;;;21.09;45.58;100842.44;4940182;29;20030;-64
2022/09/16 02:21:33;;;;;;;3.10;0.95;;;;;;;21.14;45.93;100859.03;4923043;29;20023;-64
2022/09/16 02:24:01;;;;;;;3.78;0.82;;;;;;;21.14;46.12;100852.75;4938955;29;20393;-64
2022/09/16 02:26:32;;;;;;;3.80;0.40;;;;;;;21.14;46.42;100853.59;4938812;29;20106;-64
2022/09/16 02:28:58;;;;;;;4.70;0.60;;;;;;;21.13;45.59;100861.97;4923138;29;20028;-64
2022/09/16 02:31:28;;;;;;;4.47;0.50;;;;;;;21.09;45.32;100850.63;4923050;29;20040;-64
2022/09/16 02:34:02;;;;;;;5.35;1.50;;;;;;;21.10;45.08;100857.78;4938485;29;20486;-64
2022/09/16 02:36:28;;;;;;;1.80;0.60;;;;;;;21.08;46.15;100859.81;4922633;29;20034;-64
2022/09/16 02:39:00;;;;;;;1.40;0.40;;;;;;;21.08;45.68;100865.28;4939334;29;20075;-64
2022/09/16 02:41:25;;;;;;;1.08;0.75;;;;;;;21.05;45.88;100860.19;4938665;29;20063;-64
2022/09/16 02:43:51;;;;;;;3.22;0.88;;;;;;;21.01;45.70;100856.19;4938224;29;20027;-64
2022/09/16 02:46:26;;;;;;;3.80;0.80;;;;;;;20.98;45.71;100862.03;4939966;29;20023;-64
2022/09/16 02:49:13;;;;;;;1.40;0.90;;;;;;;20.97;45.78;100868.50;4940113;29;20441;-65
2022/09/16 02:51:57;;;;;;;3.50;1.00;;;;;;;20.91;46.03;100861.09;4939780;29;20024;-65
2022/09/16 02:54:40;;;;;;;6.47;1.30;;;;;;;20.89;46.07;100857.75;4938550;29;20149;-64
2022/09/16 02:57:06;;;;;;;7.18;1.10;;;;;;;20.88;45.75;100858.78;4922405;29;20506;-64
2022/09/16 02:59:31;;;;;;;3.80;0.70;;;;;;;20.87;45.71;100854.38;4939994;29;20043;-64
2022/09/16 03:01:57;;;;;;;2.03;0.95;;;;;;;20.85;46.06;100853.75;4938576;29;20032;-64
2022/09/16 03:04:23;;;;;;;3.75;1.35;;;;;;;20.84;45.68;100857.47;4938086;29;20040;-64
2022/09/16 03:06:48;;;;;;;4.40;0.80;;;;;;;20.81;45.38;100853.28;4922314;29;20217;-64
2022/09/16 03:09:16;;;;;;;2.50;0.50;;;;;;;20.81;46.08;100856.00;4922606;29;20039;-64
2022/09/16 03:12:18;;;;;;;0.95;0.68;;;;;;;20.80;46.06;100848.00;4938115;29;20024;-64
2022/09/16 03:15:04;;;;;;;3.25;0.75;;;;;;;20.78;45.90;100855.53;4931866;29;20517;-64
2022/09/16 03:17:55;;;;;;;4.93;0.93;;;;;;;20.76;45.85;100844.00;4921989;29;20027;-64
2022/09/16 03:20:32;;;;;;;3.25;0.60;;;;;;;20.74;45.78;100846.09;4922124;29;20090;-64
2022/09/16 03:23:31;;;;;;;1.40;0.40;;;;;;;20.72;45.86;100843.53;4937918;29;20050;-64
2022/09/16 03:25:58;;;;;;;5.90;0.65;;;;;;;20.70;46.13;100847.50;4938318;29;20030;-65
2022/09/16 03:28:25;;;;;;;7.68;1.17;;;;;;;20.71;46.23;100846.47;4922185;29;20043;-64
2022/09/16 03:30:56;;;;;;;2.08;0.73;;;;;;;20.71;45.33;100857.38;4921875;29;20045;-64
2022/09/16 03:33:26;;;;;;;3.58;0.77;;;;;;;20.70;45.87;100853.78;4939001;29;20102;-64
2022/09/16 03:35:54;;;;;;;3.90;0.82;;;;;;;20.69;46.12;100854.81;4921976;29;20027;-64
2022/09/16 03:38:20;;;;;;;3.30;0.63;;;;;;;20.68;45.56;100847.72;4921603;29;20031;-64
2022/09/16 03:40:46;;;;;;;4.25;0.60;;;;;;;20.68;45.66;100842.25;4937635;29;20115;-64
2022/09/16 03:43:14;;;;;;;0.68;0.52;;;;;;;20.69;46.01;100851.25;4937651;29;20529;-65
2022/09/16 03:45:41;;;;;;;4.97;1.23;;;;;;;20.69;46.12;100841.22;4937815;29;20024;-64
2022/09/16 03:48:07;;;;;;;3.92;0.50;;;;;;;20.70;45.97;100847.50;4939056;29;20023;-64
2022/09/16 03:50:32;;;;;;;1.70;1.27;;;;;;;20.70;46.08;100836.63;4937777;29;20036;-64
2022/09/16 03:52:57;;;;;;;3.53;0.57;;;;;;;20.72;45.68;100842.69;4921701;29;20119;-64
2022/09/16 03:55:23;;;;;;;2.65;0.75;;;;;;;20.73;45.78;100833.50;4938878;29;20040;-64
2022/09/16 03:57:48;;;;;;;3.03;0.68;;;;;;;20.71;45.40;100835.59;4937827;29;20106;-64
2022/09/16 04:00:14;;;;;;;2.97;0.60;;;;;;;20.73;45.83;100836.22;4921710;29;20039;-64
2022/09/16 04:02:40;;;;;;;2.42;0.55;;;;;;;20.72;45.44;100831.81;4921700;29;20028;-64
2022/09/16 04:05:07;;;;;;;3.05;0.73;;;;;;;20.72;45.92;100837.25;4938469;29;20474;-64
2022/09/16 04:07:33;;;;;;;1.70;0.50;;;;;;;20.72;46.14;100829.94;4937900;29;20027;-64
2022/09/16 04:09:59;;;;;;;5.68;0.50;;;;;;;20.70;45.96;100823.84;4937547;29;20028;-64
2022/09/16 04:12:24;;;;;;;1.77;0.43;;;;;;;20.72;45.63;100826.34;4937335;29;20043;-64
2022/09/16 04:14:49;;;;;;;2.05;0.40;;;;;;;20.73;45.57;100826.19;4938476;29;20036;-64
2022/09/16 04:17:15;;;;;;;4.22;0.55;;;;;;;20.78;45.12;100822.84;4921384;29;20550;-64
2022/09/16 04:19:40;;;;;;;3.75;0.60;;;;;;;20.77;44.92;100823.91;4936911;29;20038;-64
2022/09/16 04:22:05;;;;;;;2.78;0.98;;;;;;;20.75;45.36;100820.53;4937196;29;20497;-64
2022/09/16 04:24:31;;;;;;;3.10;1.08;;;;;;;20.77;45.16;100834.81;4937174;29;20040;-64
2022/09/16 04:26:57;;;;;;;4.50;0.40;;;;;;;20.77;45.40;100829.38;4936240;29;20028;-64
2022/09/16 04:29:22;;;;;;;4.35;0.60;;;;;;;20.78;45.48;100833.75;4920488;29;20027;-64
2022/09/16 04:31:47;;;;;;;4.78;0.60;;;;;;;20.77;44.96;100841.06;4936241;29;20036;-64
2022/09/16 04:34:13;;;;;;;2.28;0.80;;;;;;;20.77;45.21;100840.25;4920311;29;20263;-64
2022/09/16 04:36:39;;;;;;;2.53;0.57;;;;;;;20.77;44.93;100834.81;4936316;29;20114;-63
2022/09/16 04:39:05;;;;;;;15.93;0.80;;;;;;;20.74;45.42;100829.75;4936798;29;20087;-65
2022/09/16 04:41:30;;;;;;;1.15;0.73;;;;;;;20.72;45.30;100831.81;4936303;29;20106;-64
2022/09/16 04:43:57;;;;;;;3.65;0.60;;;;;;;20.71;44.96;100831.00;4920753;29;20500;-64
2022/09/16 04:46:23;;;;;;;2.92;0.65;;;;;;;20.68;44.78;100825.09;4936256;29;20026;-64
2022/09/16 04:48:50;;;;;;;0.43;0.30;;;;;;;20.68;45.19;100830.53;4936314;29;20123;-65
2022/09/16 04:51:15;;;;;;;1.77;0.93;;;;;;;20.68;45.62;100825.09;4920247;29;20032;-64
2022/09/16 04:53:42;;;;;;;1.05;0.32;;;;;;;20.65;44.97;100831.75;4936083;29;20032;-64
2022/09/16 04:56:21;;;;;;;3.10;0.63;;;;;;;20.66;45.70;100829.88;4921123;29;20031;-64
2022/09/16 04:58:49;;;;;;;1.13;0.40;;;;;;;20.63;44.73;100822.94;4944459;29;20031;-64
2022/09/16 05:01:20;;;;;;;0.68;0.30;;;;;;;20.64;45.61;100829.22;4944617;29;20023;-64
2022/09/16 05:03:48;;;;;;;5.88;0.52;;;;;;;20.63;45.48;100838.44;4944581;29;20055;-64
2022/09/16 05:06:17;;;;;;;3.78;0.47;;;;;;;20.65;44.68;100830.91;4960067;29;20020;-63
2022/09/16 05:08:42;;;;;;;4.60;0.60;;;;;;;20.64;45.05;100826.50;4944439;29;20084;-64
2022/09/16 05:11:10;;;;;;;1.40;0.32;;;;;;;20.66;44.74;100829.88;4960859;29;20031;-64
2022/09/16 05:13:36;;;;;;;0.98;0.60;;;;;;;20.65;45.12;100836.34;4960570;28;20027;-64
2022/09/16 05:16:06;;;;;;;1.48;0.57;;;;;;;20.67;45.24;100845.16;4960299;28;20047;-64
2022/09/16 05:18:33;;;;;;;2.60;0.45;;;;;;;20.64;44.65;100846.41;4944412;28;20031;-64
2022/09/16 05:20:59;;;;;;;4.72;0.60;;;;;;;20.58;44.96;100838.16;4960398;28;20044;-65
2022/09/16 05:23:25;;;;;;;4.28;0.80;;;;;;;20.57;45.10;100844.66;4960697;28;20015;-63
2022/09/16 05:25:51;;;;;;;0.60;0.30;;;;;;;20.56;44.78;100848.41;4944580;29;20051;-64
2022/09/16 05:28:17;;;;;;;0.45;0.35;;;;;;;20.56;45.17;100849.25;4960149;28;20012;-64
2022/09/16 05:30:42;;;;;;;0.57;0.30;;;;;;;20.55;45.15;100841.25;4960321;29;20066;-64
2022/09/16 05:33:08;;;;;;;2.90;0.60;;;;;;;20.56;45.10;100853.84;4960199;28;20040;-64
2022/09/16 05:35:33;;;;;;;2.20;0.30;;;;;;;20.54;45.35;100856.78;4959964;28;20020;-64
2022/09/16 05:37:58;;;;;;;3.22;0.63;;;;;;;20.57;45.22;100856.38;4960260;29;20036;-64
2022/09/16 05:40:26;;;;;;;4.50;0.57;;;;;;;20.57;45.34;100850.09;4960269;28;20091;-63
2022/09/16 05:42:51;;;;;;;0.85;0.50;;;;;;;20.61;45.57;100857.66;4960351;28;20043;-64
2022/09/16 05:45:16;;;;;;;0.93;0.43;;;;;;;20.65;45.08;100858.97;4960900;28;20024;-64
2022/09/16 05:47:48;;;;;;;0.55;0.50;;;;;;;20.63;45.01;100852.06;4960292;28;20028;-64
2022/09/16 05:50:14;;;;;;;2.10;0.37;;;;;;;20.68;45.21;100857.75;4944290;29;20039;-64
2022/09/16 05:52:40;;;;;;;2.47;0.75;;;;;;;20.71;44.79;100857.38;4960242;28;20180;-64
2022/09/16 05:55:05;;;;;;;2.55;0.30;;;;;;;20.75;45.07;100864.94;4960190;28;20012;-64
2022/09/16 05:57:31;;;;;;;0.50;0.25;;;;;;;20.75;45.18;100858.66;4960258;28;20016;-65
2022/09/16 05:59:56;;;;;;;2.47;0.63;;;;;;;20.74;45.18;100854.25;4960584;28;20095;-66
2022/09/16 06:02:21;;;;;;;2.85;0.50;;;;;;;20.75;45.30;100864.09;4960096;28;20035;-64
2022/09/16 06:04:47;;;;;;;5.45;0.68;;;;;;;20.76;45.59;100865.78;4943843;29;20043;-65
2022/09/16 06:07:12;;;;;;;2.13;0.73;;;;;;;20.74;44.99;100863.25;4944197;29;20011;-64
2022/09/16 06:09:37;;;;;;;1.38;0.45;;;;;;;20.77;45.17;100867.47;4960383;29;20023;-64
2022/09/16 06:12:03;;;;;;;2.38;0.52;;;;;;;20.68;45.61;100846.84;4959979;28;20084;-65
2022/09/16 06:14:29;;;;;;;2.80;0.90;;;;;;;20.80;45.18;100856.19;4960059;28;20020;-64
2022/09/16 06:16:55;;;;;;;1.92;0.47;;;;;;;20.83;45.38;100861.22;4944035;29;20070;-64
2022/09/16 06:19:21;;;;;;;3.00;0.60;;;;;;;20.83;44.70;100855.78;4947694;29;20027;-65
2022/09/16 06:21:47;;;;;;;3.38;0.30;;;;;;;20.80;45.23;100859.75;4932224;29;20027;-65
2022/09/16 06:24:13;;;;;;;4.78;0.50;;;;;;;20.84;45.19;100862.94;4947552;29;20035;-64
2022/09/16 06:26:40;;;;;;;1.50;0.47;;;;;;;20.84;45.17;100868.38;4947506;29;20015;-65
2022/09/16 06:29:07;;;;;;;1.58;0.55;;;;;;;20.85;45.22;100875.53;4963597;28;20008;-66
2022/09/16 06:31:33;;;;;;;5.38;0.30;;;;;;;20.84;45.27;100862.94;4963130;29;20036;-64
2022/09/16 06:33:58;;;;;;;3.40;1.27;;;;;;;20.86;45.51;100872.59;4962677;28;20046;-63
2022/09/16 06:36:27;;;;;;;0.75;0.25;;;;;;;20.88;45.14;100865.06;4963656;29;20070;-63
2022/09/16 06:38:53;;;;;;;0.38;0.25;;;;;;;20.95;45.52;100862.41;4963095;28;20034;-64
2022/09/16 06:41:19;;;;;;;8.02;0.98;;;;;;;21.03;45.37;100864.16;4963706;28;20031;-64
2022/09/16 06:43:45;;;;;;;1.63;0.68;;;;;;;21.09;45.02;100866.97;4963317;29;20031;-64
2022/09/16 06:46:16;;;;;;;1.15;0.40;;;;;;;21.11;44.95;100864.03;4962926;28;20090;-64
2022/09/16 06:48:43;;;;;;;4.18;0.32;;;;;;;21.14;45.04;100863.63;4963038;29;20012;-64
2022/09/16 06:51:14;;;;;;;0.63;0.25;;;;;;;21.14;45.63;100864.50;4947040;29;20031;-64
2022/09/16 06:53:40;;;;;;;3.30;0.50;;;;;;;21.16;44.51;100862.41;4963344;28;20028;-64
2022/09/16 06:56:07;;;;;;;5.88;0.30;;;;;;;21.20;44.95;100863.72;4963068;28;20029;-64
2022/09/16 06:58:34;;;;;;;1.85;0.32;;;;;;;21.26;44.99;100864.81;4962730;29;20016;-64
2022/09/16 07:01:06;;;;;;;4.95;0.40;;;;;;;21.29;45.45;100867.97;4962614;28;20016;-64
2022/09/16 07:03:32;;;;;;;3.70;0.38;;;;;;;21.34;44.95;100854.59;4962453;28;20035;-64
2022/09/16 07:06:02;;;;;;;3.22;0.40;;;;;;;21.40;44.73;100859.25;4946728;29;20027;-64
2022/09/16 07:08:30;;;;;;;2.10;0.85;;;;;;;21.44;44.65;100863.25;4947078;29;20020;-66
2022/09/16 07:11:05;;;;;;;0.60;0.28;;;;;;;21.46;44.63;100863.91;4962368;28;20016;-65
2022/09/16 07:13:31;;;;;;;10.55;1.15;;;;;;;21.45;45.10;100873.13;4946903;29;20023;-64
2022/09/16 07:16:18;;;;;;;2.13;0.40;;;;;;;21.50;45.09;100869.78;4962013;28;20040;-64
2022/09/16 07:18:43;;;;;;;0.50;0.40;;;;;;;21.57;45.15;100870.69;4962756;28;20016;-63
2022/09/16 07:21:14;;;;;;;2.10;0.30;;;;;;;21.63;45.03;100869.06;4946534;28;20031;-64
2022/09/16 07:23:41;;;;;;;1.00;0.50;;;;;;;21.69;44.95;100865.53;4962673;29;20063;-64
2022/09/16 07:26:09;;;;;;;2.35;0.52;;;;;;;21.78;44.94;100872.50;4961879;28;20027;-64
2022/09/16 07:28:35;;;;;;;1.08;0.40;;;;;;;21.84;44.55;100864.34;4962283;29;20024;-65
2022/09/16 07:31:05;;;;;;;3.25;0.55;;;;;;;21.97;44.18;100866.34;4962725;28;20022;-65
2022/09/16 07:33:34;;;;;;;2.13;0.60;;;;;;;22.09;44.21;100872.06;4962674;28;20075;-65
2022/09/16 07:35:59;;;;;;;2.17;0.50;;;;;;;22.26;43.73;100870.66;4930825;29;20067;-64
2022/09/16 07:38:26;;;;;;;5.38;0.80;;;;;;;22.42;44.14;100870.28;4946208;29;20020;-65
2022/09/16 07:40:51;;;;;;;0.77;0.68;;;;;;;22.54;43.98;100880.44;4946260;28;20015;-64
2022/09/16 07:43:17;;;;;;;1.58;0.40;;;;;;;22.52;43.74;100876.22;4962109;29;20022;-64
2022/09/16 07:45:42;;;;;;;0.38;0.20;;;;;;;22.48;44.58;100869.47;4962388;28;20012;-64
2022/09/16 07:48:08;;;;;;;1.23;0.52;;;;;;;22.47;44.25;100879.56;4962767;28;20087;-64
2022/09/16 07:50:34;;;;;;;3.53;0.80;;;;;;;22.51;44.65;100871.81;4946057;28;20038;-64
2022/09/16 07:52:59;;;;;;;2.30;0.30;;;;;;;22.59;44.95;100880.66;4962476;28;20018;-64
2022/09/16 07:55:25;;;;;;;1.77;0.40;;;;;;;22.69;44.24;100883.03;4961761;28;20023;-64
2022/09/16 07:57:50;;;;;;;2.92;0.38;;;;;;;22.78;44.15;100886.41;4946015;29;20081;-64
2022/09/16 08:00:16;;;;;;;1.40;0.30;;;;;;;22.92;43.38;100893.59;4961725;28;20016;-64
2022/09/16 08:02:41;;;;;;;3.33;0.43;;;;;;;23.32;43.04;100895.28;4961496;28;20032;-64
2022/09/16 08:05:08;;;;;;;1.45;0.30;;;;;;;23.47;42.91;100901.41;4945736;29;20020;-64
2022/09/16 08:07:34;;;;;;;2.50;0.20;;;;;;;23.64;43.34;100901.81;4961668;28;20079;-65
2022/09/16 08:09:59;;;;;;;0.60;0.40;;;;;;;23.76;42.59;100898.22;4945925;28;20057;-65
2022/09/16 08:12:25;;;;;;;1.83;0.30;;;;;;;23.83;42.37;100909.16;4946043;29;20032;-65
2022/09/16 08:14:50;;;;;;;4.60;0.30;;;;;;;23.82;42.75;100906.63;4945759;29;20095;-65
2022/09/16 08:17:16;;;;;;;4.55;0.30;;;;;;;23.81;42.21;100911.28;4961783;28;20039;-63
2022/09/16 08:19:41;;;;;;;0.30;0.17;;;;;;;23.84;42.42;100910.00;4961591;28;20059;-64
2022/09/16 08:22:06;;;;;;;0.20;0.10;;;;;;;23.99;41.84;100908.69;4930099;28;20111;-64
2022/09/16 08:24:32;;;;;;;2.03;0.28;;;;;;;24.05;41.76;100918.78;4945806;28;20023;-65
2022/09/16 08:26:57;;;;;;;1.95;0.20;;;;;;;24.01;42.22;100912.03;4961597;28;20027;-66
2022/09/16 08:29:24;;;;;;;0.35;0.30;;;;;;;23.95;42.69;100934.81;4961507;28;20034;-66
2022/09/16 08:31:50;;;;;;;1.13;0.32;;;;;;;24.00;42.21;100920.47;4961657;28;20024;-64
2022/09/16 08:34:16;;;;;;;3.13;1.00;;;;;;;24.06;42.26;100916.88;4945442;28;20051;-65
2022/09/16 08:36:41;;;;;;;3.95;0.35;;;;;;;24.24;42.06;100922.53;4945334;29;20055;-65
2022/09/16 08:39:08;;;;;;;4.72;1.05;;;;;;;24.24;42.33;100931.59;4961700;28;20076;-65
2022/09/16 08:42:11;;;;;;;1.25;0.40;;;;;;;24.16;42.46;100925.50;4960479;28;20035;-64
2022/09/16 08:44:55;;;;;;;0.90;0.20;;;;;;;24.05;42.04;100921.50;4961831;28;20032;-65
2022/09/16 08:47:34;;;;;;;4.25;0.50;;;;;;;24.02;42.79;100926.56;4961292;28;20075;-66
2022/09/16 08:50:04;;;;;;;1.35;0.30;;;;;;;23.96;41.89;100938.38;4961147;28;20031;-65
2022/09/16 08:52:32;;;;;;;2.45;0.20;;;;;;;23.91;42.23;100933.56;4944855;29;20012;-64
2022/09/16 08:55:09;;;;;;;5.10;0.57;;;;;;;23.92;42.42;100939.88;4960996;28;20015;-64
2022/09/16 08:57:39;;;;;;;1.25;0.40;;;;;;;23.96;42.51;100944.69;4945256;29;20039;-65
2022/09/16 09:00:12;;;;;;;0.77;0.38;;;;;;;23.98;42.68;100939.03;4945280;29;20036;-65
2022/09/16 09:03:06;;;;;;;0.10;0.10;;;;;;;23.96;42.44;100950.16;4945109;29;20011;-65
2022/09/16 09:05:46;;;;;;;2.25;0.28;;;;;;;23.98;41.64;100944.50;4960471;28;20055;-67
2022/09/16 09:08:15;;;;;;;2.28;0.20;;;;;;;23.92;42.24;100946.19;4945080;28;20103;-65
2022/09/16 09:11:06;;;;;;;3.70;0.57;;;;;;;23.89;42.25;100945.75;4960876;28;20043;-65
2022/09/16 09:13:56;;;;;;;2.47;0.30;;;;;;;23.93;41.78;100947.84;4960869;28;20032;-64
2022/09/16 09:16:41;;;;;;;2.83;0.30;;;;;;;23.97;42.54;100942.81;4960916;28;20020;-65
2022/09/16 09:19:15;;;;;;;2.17;0.43;;;;;;;24.19;41.91;100941.50;4960911;28;20015;-64
2022/09/16 09:22:19;;;;;;;2.65;0.50;;;;;;;24.73;40.52;100944.69;4960516;28;20012;-65
2022/09/16 09:24:44;;;;;;;;;;;;;;;25.46;40.18;100939.56;4961574;28;20199;-65
2022/09/16 09:27:10;;;;;;;2.72;0.77;;;;;;;25.95;40.09;100933.22;4960879;28;19903;-65
2022/09/16 09:30:10;;;;;;;2.78;0.50;;;;;;;26.56;39.25;100933.16;4961082;28;20024;-66
2022/09/16 09:32:50;;;;;;;1.02;0.45;;;;;;;26.93;39.13;100933.97;4953230;28;20040;-66
2022/09/16 09:35:31;;;;;;;1.30;0.30;;;;;;;26.98;39.48;100940.44;4961374;28;20047;-66
2022/09/16 09:38:17;;;;;;;4.53;0.93;;;;;;;28.14;38.78;100926.84;4961083;28;20024;-66
2022/09/16 09:40:57;;;;;;;3.20;0.60;;;;;;;30.04;35.97;100918.78;4960778;28;20027;-65
2022/09/16 09:43:35;;;;;;;3.10;0.38;;;;;;;31.75;33.46;100916.25;4960276;28;20035;-67
2022/09/16 09:46:05;;;;;;;1.67;0.43;;;;;;;32.23;33.16;100913.25;4960530;28;20016;-66
2022/09/16 09:48:47;;;;;;;2.90;0.20;;;;;;;31.78;34.16;100913.78;4960390;28;20012;-66
2022/09/16 09:51:43;;;;;;;2.03;0.20;;;;;;;31.89;34.78;100909.16;4960661;28;20008;-66
2022/09/16 09:54:25;;;;;;;3.20;0.52;;;;;;;32.18;34.09;100903.00;4964232;28;20016;-65
2022/09/16 09:56:58;;;;;;;0.73;0.25;;;;;;;32.63;33.68;100905.16;4964784;28;20071;-65
2022/09/16 09:59:26;;;;;;;0.65;0.38;;;;;;;32.63;33.48;100896.81;4948251;28;20031;-66
2022/09/16 10:01:56;;;;;;;0.77;0.50;;;;;;;32.30;33.41;100886.13;4964399;28;20020;-65
2022/09/16 10:04:22;;;;;;;1.60;0.13;;;;;;;32.87;33.39;100890.75;4964108;28;20016;-67
2022/09/16 10:06:48;;;;;;;5.28;1.10;;;;;;;32.42;33.66;100886.72;4948303;29;20028;-66
2022/09/16 10:09:14;;;;;;;4.05;0.30;;;;;;;32.37;32.68;100889.47;4948267;29;20091;-66
2022/09/16 10:11:53;;;;;;;0.10;0.10;;;;;;;31.55;33.94;100887.31;4948312;28;20011;-66
2022/09/16 10:14:35;;;;;;;1.42;0.25;;;;;;;30.75;34.07;100887.38;4964127;28;20044;-66
2022/09/16 10:17:10;;;;;;;1.17;0.20;;;;;;;30.10;34.77;100890.13;4964132;28;20016;-66
2022/09/16 10:19:48;;;;;;;1.88;0.85;;;;;;;29.42;35.29;100894.09;4948012;28;20031;-65
2022/09/16 10:22:24;;;;;;;2.85;0.60;;;;;;;28.81;35.94;100900.41;4964035;28;20019;-65
2022/09/16 10:24:57;;;;;;;3.65;0.35;;;;;;;28.26;36.57;100905.63;4948002;29;20043;-66
2022/09/16 10:27:33;;;;;;;1.65;0.30;;;;;;;27.83;36.13;100899.69;4963972;28;20015;-66
2022/09/16 10:30:07;;;;;;;0.68;0.28;;;;;;;27.75;35.81;100894.50;4948232;29;20019;-66
2022/09/16 10:32:56;;;;;;;1.35;0.30;;;;;;;27.66;36.42;100893.22;4964260;28;20048;-67
2022/09/16 10:35:30;;;;;;;2.45;0.40;;;;;;;27.85;35.52;100885.66;4964349;28;20008;-65
2022/09/16 10:38:03;;;;;;;1.17;0.65;;;;;;;27.90;35.56;100878.34;4963702;28;20015;-65
2022/09/16 10:40:29;;;;;;;1.85;0.25;;;;;;;27.71;36.79;100885.06;4963796;28;20036;-67
2022/09/16 10:43:01;;;;;;;2.53;0.43;;;;;;;27.36;36.62;100889.72;4963788;28;20028;-66
2022/09/16 10:45:29;;;;;;;2.20;0.20;;;;;;;26.94;36.92;100895.22;4963727;28;20034;-66
2022/09/16 10:47:59;;;;;;;4.07;0.38;;;;;;;26.45;37.48;100896.31;4963662;28;20038;-66
2022/09/16 10:50:26;;;;;;;4.32;0.30;;;;;;;25.97;38.08;100904.47;4947629;28;20036;-67
2022/09/16 10:52:51;;;;;;;2.67;0.40;;;;;;;25.61;38.30;100904.41;4947877;28;20012;-66
2022/09/16 10:55:27;;;;;;;2.90;0.20;;;;;;;25.28;38.28;100901.09;4947710;28;20019;-66
2022/09/16 10:58:05;;;;;;;1.20;0.25;;;;;;;25.02;38.36;100910.34;4963568;28;20100;-66
2022/09/16 11:00:36;;;;;;;0.47;0.25;;;;;;;26.25;36.63;100911.34;4963632;28;20022;-66
2022/09/16 11:03:07;;;;;;;4.97;0.40;;;;;;;27.48;36.05;100918.09;4962767;28;20027;-67
2022/09/16 11:05:39;;;;;;;0.20;0.20;;;;;;;28.47;35.59;100906.06;4963494;28;20055;-66
2022/09/16 11:08:33;;;;;;;1.45;0.35;;;;;;;29.40;34.21;100917.50;4963175;28;20020;-66
2022/09/16 11:11:06;;;;;;;1.67;0.43;;;;;;;30.29;33.97;100912.78;4962925;28;20016;-66
2022/09/16 11:13:47;;;;;;;1.30;0.43;;;;;;;30.84;33.79;100915.41;4963421;28;20075;-67
2022/09/16 11:16:21;;;;;;;1.65;0.40;;;;;;;30.22;34.72;100912.97;4962991;28;20084;-66
2022/09/16 11:19:11;;;;;;;2.75;0.40;;;;;;;30.97;33.93;100915.00;4962960;28;20038;-65
2022/09/16 11:21:45;;;;;;;2.00;0.20;;;;;;;31.09;33.90;100904.63;4946972;28;20011;-65
2022/09/16 11:24:16;;;;;;;0.68;0.35;;;;;;;31.54;33.47;100913.38;4963494;28;20028;-65
2022/09/16 11:26:51;;;;;;;3.10;0.30;;;;;;;31.73;33.49;100894.38;4963500;28;20044;-65
2022/09/16 11:29:22;;;;;;;1.33;0.22;;;;;;;32.07;32.92;100911.53;4962936;28;20023;-67
2022/09/16 11:32:02;;;;;;;2.25;0.30;;;;;;;32.28;32.54;100907.72;4963133;28;20008;-65
2022/09/16 11:34:47;;;;;;;0.73;0.20;;;;;;;32.76;31.87;100912.94;4946751;28;20035;-67
2022/09/16 11:37:21;;;;;;;1.60;0.25;;;;;;;33.13;30.89;100914.72;4962791;28;20024;-66
2022/09/16 11:39:49;;;;;;;1.40;0.30;;;;;;;32.90;32.10;100920.72;4963016;28;20028;-66
2022/09/16 11:42:39;;;;;;;2.92;0.20;;;;;;;32.25;32.56;100947.09;4962361;28;20062;-66
2022/09/16 11:45:34;;;;;;;2.60;0.20;;;;;;;31.05;33.79;100969.91;4946665;28;20023;-66